sensor_id;sensor_type;location;lat;lon;timestamp;P1;durP1;ratioP1;P2;durP2;ratioP2
61704;SDS011;47627;48.078;11.522;2024-03-22T00:00:15;35.47;;;28.23;;
61704;SDS011;47627;48.078;11.522;2024-03-22T00:02:40;37.78;;;27.52;;
61704;SDS011;47627;48.078;11.522;2024-03-22T00:05:05;36.00;;;29.90;;
61704;SDS011;47627;48.078;11.522;2024-03-22T00:07:30;38.78;;;31.00;;
61704;SDS011;47627;48.078;11.522;2024-03-22T00:09:56;40.13;;;30.90;;
61704;SDS011;47627;48.078;11.522;2024-03-22T00:12:21;41.28;;;28.80;;
61704;SDS011;47627;48.078;11.522;2024-03-22T00:14:49;37.88;;;29.20;;
61704;SDS011;47627;48.078;11.522;2024-03-22T00:17:16;37.13;;;28.75;;
61704;SDS011;47627;48.078;11.522;2024-03-22T00:19:41;40.13;;;29.20;;
61704;SDS011;47627;48.078;11.522;2024-03-22T00:22:06;44.28;;;29.10;;
61704;SDS011;47627;48.078;11.522;2024-03-22T00:24:32;40.80;;;28.50;;
61704;SDS011;47627;48.078;11.522;2024-03-22T00:26:57;38.08;;;28.77;;
61704;SDS011;47627;48.078;11.522;2024-03-22T00:29:22;39.05;;;29.65;;
61704;SDS011;47627;48.078;11.522;2024-03-22T00:31:48;38.17;;;29.00;;
61704;SDS011;47627;48.078;11.522;2024-03-22T00:34:14;40.22;;;29.85;;
61704;SDS011;47627;48.078;11.522;2024-03-22T00:36:39;37.35;;;27.95;;
61704;SDS011;47627;48.078;11.522;2024-03-22T00:39:04;36.80;;;28.48;;
61704;SDS011;47627;48.078;11.522;2024-03-22T00:41:30;41.67;;;30.17;;
61704;SDS011;47627;48.078;11.522;2024-03-22T00:43:55;37.10;;;28.60;;
61704;SDS011;47627;48.078;11.522;2024-03-22T00:46:20;35.72;;;27.67;;
61704;SDS011;47627;48.078;11.522;2024-03-22T00:48:46;35.83;;;27.80;;
61704;SDS011;47627;48.078;11.522;2024-03-22T00:51:11;40.22;;;28.38;;
61704;SDS011;47627;48.078;11.522;2024-03-22T00:53:36;35.38;;;27.48;;
61704;SDS011;47627;48.078;11.522;2024-03-22T00:56:01;36.78;;;27.35;;
61704;SDS011;47627;48.078;11.522;2024-03-22T00:58:27;35.63;;;27.63;;
61704;SDS011;47627;48.078;11.522;2024-03-22T01:00:53;34.58;;;26.77;;
61704;SDS011;47627;48.078;11.522;2024-03-22T01:03:18;36.88;;;28.38;;
61704;SDS011;47627;48.078;11.522;2024-03-22T01:05:43;38.72;;;27.02;;
61704;SDS011;47627;48.078;11.522;2024-03-22T01:08:09;37.33;;;27.23;;
61704;SDS011;47627;48.078;11.522;2024-03-22T01:10:34;37.35;;;26.92;;
61704;SDS011;47627;48.078;11.522;2024-03-22T01:13:00;38.50;;;27.42;;
61704;SDS011;47627;48.078;11.522;2024-03-22T01:15:25;35.88;;;27.70;;
61704;SDS011;47627;48.078;11.522;2024-03-22T01:17:50;34.03;;;25.98;;
61704;SDS011;47627;48.078;11.522;2024-03-22T01:20:17;35.67;;;27.60;;
61704;SDS011;47627;48.078;11.522;2024-03-22T01:22:42;34.03;;;26.45;;
61704;SDS011;47627;48.078;11.522;2024-03-22T01:25:07;38.03;;;26.50;;
61704;SDS011;47627;48.078;11.522;2024-03-22T01:27:34;35.33;;;26.00;;
61704;SDS011;47627;48.078;11.522;2024-03-22T01:29:59;38.08;;;26.63;;
61704;SDS011;47627;48.078;11.522;2024-03-22T01:32:24;35.47;;;25.77;;
61704;SDS011;47627;48.078;11.522;2024-03-22T01:34:49;38.28;;;26.98;;
61704;SDS011;47627;48.078;11.522;2024-03-22T01:37:15;38.25;;;27.95;;
61704;SDS011;47627;48.078;11.522;2024-03-22T01:39:40;39.92;;;28.65;;
61704;SDS011;47627;48.078;11.522;2024-03-22T01:42:05;37.78;;;26.77;;
61704;SDS011;47627;48.078;11.522;2024-03-22T01:44:31;38.90;;;29.30;;
61704;SDS011;47627;48.078;11.522;2024-03-22T01:46:56;46.00;;;29.92;;
61704;SDS011;47627;48.078;11.522;2024-03-22T01:49:22;40.20;;;29.88;;
61704;SDS011;47627;48.078;11.522;2024-03-22T01:51:49;43.97;;;30.63;;
61704;SDS011;47627;48.078;11.522;2024-03-22T01:54:15;41.85;;;29.38;;
61704;SDS011;47627;48.078;11.522;2024-03-22T01:56:40;43.42;;;30.13;;
61704;SDS011;47627;48.078;11.522;2024-03-22T01:59:06;44.50;;;30.02;;
61704;SDS011;47627;48.078;11.522;2024-03-22T02:01:31;40.58;;;28.42;;
61704;SDS011;47627;48.078;11.522;2024-03-22T02:03:57;43.67;;;28.50;;
61704;SDS011;47627;48.078;11.522;2024-03-22T02:06:22;42.60;;;30.90;;
61704;SDS011;47627;48.078;11.522;2024-03-22T02:08:47;43.30;;;29.90;;
61704;SDS011;47627;48.078;11.522;2024-03-22T02:11:12;40.95;;;28.77;;
61704;SDS011;47627;48.078;11.522;2024-03-22T02:13:38;46.65;;;31.70;;
61704;SDS011;47627;48.078;11.522;2024-03-22T02:16:03;51.03;;;34.70;;
61704;SDS011;47627;48.078;11.522;2024-03-22T02:18:29;51.13;;;34.63;;
61704;SDS011;47627;48.078;11.522;2024-03-22T02:20:55;52.90;;;35.50;;
61704;SDS011;47627;48.078;11.522;2024-03-22T02:23:33;57.58;;;36.75;;
61704;SDS011;47627;48.078;11.522;2024-03-22T02:25:58;54.25;;;36.95;;
61704;SDS011;47627;48.078;11.522;2024-03-22T02:28:24;59.03;;;37.08;;
61704;SDS011;47627;48.078;11.522;2024-03-22T02:30:49;51.20;;;35.15;;
61704;SDS011;47627;48.078;11.522;2024-03-22T02:33:14;56.10;;;36.38;;
61704;SDS011;47627;48.078;11.522;2024-03-22T02:35:39;49.67;;;34.55;;
61704;SDS011;47627;48.078;11.522;2024-03-22T02:38:05;50.30;;;35.58;;
61704;SDS011;47627;48.078;11.522;2024-03-22T02:40:30;47.50;;;34.08;;
61704;SDS011;47627;48.078;11.522;2024-03-22T02:42:55;49.10;;;33.25;;
61704;SDS011;47627;48.078;11.522;2024-03-22T02:45:20;50.50;;;35.35;;
61704;SDS011;47627;48.078;11.522;2024-03-22T02:47:46;49.67;;;35.13;;
61704;SDS011;47627;48.078;11.522;2024-03-22T02:50:11;51.55;;;35.75;;
61704;SDS011;47627;48.078;11.522;2024-03-22T02:52:36;49.63;;;34.15;;
61704;SDS011;47627;48.078;11.522;2024-03-22T02:55:02;51.10;;;35.45;;
61704;SDS011;47627;48.078;11.522;2024-03-22T02:57:27;47.25;;;34.00;;
61704;SDS011;47627;48.078;11.522;2024-03-22T02:59:52;50.53;;;33.10;;
61704;SDS011;47627;48.078;11.522;2024-03-22T03:02:18;44.40;;;32.05;;
61704;SDS011;47627;48.078;11.522;2024-03-22T03:04:43;50.17;;;33.90;;
61704;SDS011;47627;48.078;11.522;2024-03-22T03:07:09;50.53;;;33.47;;
61704;SDS011;47627;48.078;11.522;2024-03-22T03:09:35;48.10;;;33.70;;
61704;SDS011;47627;48.078;11.522;2024-03-22T03:12:00;49.75;;;34.35;;
61704;SDS011;47627;48.078;11.522;2024-03-22T03:14:25;43.72;;;33.05;;
61704;SDS011;47627;48.078;11.522;2024-03-22T03:16:51;50.97;;;35.05;;
61704;SDS011;47627;48.078;11.522;2024-03-22T03:19:16;48.90;;;34.67;;
61704;SDS011;47627;48.078;11.522;2024-03-22T03:21:41;47.67;;;35.22;;
61704;SDS011;47627;48.078;11.522;2024-03-22T03:24:06;48.42;;;34.88;;
61704;SDS011;47627;48.078;11.522;2024-03-22T03:26:34;52.35;;;35.00;;
61704;SDS011;47627;48.078;11.522;2024-03-22T03:28:59;49.58;;;33.63;;
61704;SDS011;47627;48.078;11.522;2024-03-22T03:31:24;47.53;;;34.08;;
61704;SDS011;47627;48.078;11.522;2024-03-22T03:33:49;51.83;;;35.65;;
61704;SDS011;47627;48.078;11.522;2024-03-22T03:36:15;48.50;;;32.85;;
61704;SDS011;47627;48.078;11.522;2024-03-22T03:38:40;49.67;;;33.55;;
61704;SDS011;47627;48.078;11.522;2024-03-22T03:41:06;47.60;;;32.67;;
61704;SDS011;47627;48.078;11.522;2024-03-22T03:43:31;48.97;;;35.72;;
61704;SDS011;47627;48.078;11.522;2024-03-22T03:45:57;50.80;;;33.78;;
61704;SDS011;47627;48.078;11.522;2024-03-22T03:48:22;56.00;;;37.13;;
61704;SDS011;47627;48.078;11.522;2024-03-22T03:50:51;50.03;;;36.17;;
61704;SDS011;47627;48.078;11.522;2024-03-22T03:53:17;55.05;;;37.75;;
61704;SDS011;47627;48.078;11.522;2024-03-22T03:55:42;54.03;;;37.17;;
61704;SDS011;47627;48.078;11.522;2024-03-22T03:58:07;51.65;;;35.88;;
61704;SDS011;47627;48.078;11.522;2024-03-22T04:00:32;55.17;;;37.28;;
61704;SDS011;47627;48.078;11.522;2024-03-22T04:02:58;48.97;;;36.30;;
61704;SDS011;47627;48.078;11.522;2024-03-22T04:05:23;51.70;;;35.30;;
61704;SDS011;47627;48.078;11.522;2024-03-22T04:07:48;52.28;;;36.70;;
61704;SDS011;47627;48.078;11.522;2024-03-22T04:10:14;50.17;;;35.33;;
61704;SDS011;47627;48.078;11.522;2024-03-22T04:12:39;52.45;;;35.42;;
61704;SDS011;47627;48.078;11.522;2024-03-22T04:15:04;55.25;;;36.45;;
61704;SDS011;47627;48.078;11.522;2024-03-22T04:17:30;55.08;;;37.45;;
61704;SDS011;47627;48.078;11.522;2024-03-22T04:19:55;52.22;;;36.00;;
61704;SDS011;47627;48.078;11.522;2024-03-22T04:22:21;49.13;;;33.90;;
61704;SDS011;47627;48.078;11.522;2024-03-22T04:24:46;51.08;;;34.65;;
61704;SDS011;47627;48.078;11.522;2024-03-22T04:27:11;47.85;;;32.45;;
61704;SDS011;47627;48.078;11.522;2024-03-22T04:29:36;52.30;;;35.03;;
61704;SDS011;47627;48.078;11.522;2024-03-22T04:32:02;51.00;;;34.92;;
61704;SDS011;47627;48.078;11.522;2024-03-22T04:34:27;61.97;;;37.40;;
61704;SDS011;47627;48.078;11.522;2024-03-22T04:36:52;51.72;;;34.42;;
61704;SDS011;47627;48.078;11.522;2024-03-22T04:39:21;49.22;;;33.83;;
61704;SDS011;47627;48.078;11.522;2024-03-22T04:41:46;48.13;;;33.50;;
61704;SDS011;47627;48.078;11.522;2024-03-22T04:44:12;48.65;;;34.05;;
61704;SDS011;47627;48.078;11.522;2024-03-22T04:46:37;48.08;;;32.10;;
61704;SDS011;47627;48.078;11.522;2024-03-22T04:49:02;48.60;;;34.28;;
61704;SDS011;47627;48.078;11.522;2024-03-22T04:51:28;51.08;;;34.20;;
61704;SDS011;47627;48.078;11.522;2024-03-22T04:53:53;49.28;;;33.38;;
61704;SDS011;47627;48.078;11.522;2024-03-22T04:56:18;48.88;;;33.22;;
61704;SDS011;47627;48.078;11.522;2024-03-22T04:58:43;43.03;;;30.80;;
61704;SDS011;47627;48.078;11.522;2024-03-22T05:01:09;42.95;;;30.63;;
61704;SDS011;47627;48.078;11.522;2024-03-22T05:03:34;43.50;;;29.02;;
61704;SDS011;47627;48.078;11.522;2024-03-22T05:05:59;40.92;;;29.42;;
61704;SDS011;47627;48.078;11.522;2024-03-22T05:08:28;41.20;;;30.13;;
61704;SDS011;47627;48.078;11.522;2024-03-22T05:10:53;44.78;;;30.20;;
61704;SDS011;47627;48.078;11.522;2024-03-22T05:13:18;45.67;;;31.05;;
61704;SDS011;47627;48.078;11.522;2024-03-22T05:15:44;44.83;;;30.10;;
61704;SDS011;47627;48.078;11.522;2024-03-22T05:18:10;44.83;;;28.77;;
61704;SDS011;47627;48.078;11.522;2024-03-22T05:20:35;43.83;;;30.55;;
61704;SDS011;47627;48.078;11.522;2024-03-22T05:23:00;43.40;;;27.63;;
61704;SDS011;47627;48.078;11.522;2024-03-22T05:25:25;38.90;;;27.58;;
61704;SDS011;47627;48.078;11.522;2024-03-22T05:27:51;35.15;;;25.13;;
61704;SDS011;47627;48.078;11.522;2024-03-22T05:30:17;35.10;;;25.40;;
61704;SDS011;47627;48.078;11.522;2024-03-22T05:32:43;32.17;;;24.02;;
61704;SDS011;47627;48.078;11.522;2024-03-22T05:35:08;33.53;;;24.52;;
61704;SDS011;47627;48.078;11.522;2024-03-22T05:37:33;29.23;;;21.55;;
61704;SDS011;47627;48.078;11.522;2024-03-22T05:39:59;30.65;;;21.95;;
61704;SDS011;47627;48.078;11.522;2024-03-22T05:42:25;31.25;;;23.02;;
61704;SDS011;47627;48.078;11.522;2024-03-22T05:44:51;33.85;;;21.80;;
61704;SDS011;47627;48.078;11.522;2024-03-22T05:47:17;35.70;;;23.60;;
61704;SDS011;47627;48.078;11.522;2024-03-22T05:49:43;31.95;;;23.70;;
61704;SDS011;47627;48.078;11.522;2024-03-22T05:52:09;30.33;;;22.90;;
61704;SDS011;47627;48.078;11.522;2024-03-22T05:54:34;33.47;;;22.98;;
61704;SDS011;47627;48.078;11.522;2024-03-22T05:56:59;32.35;;;22.80;;
61704;SDS011;47627;48.078;11.522;2024-03-22T05:59:25;29.95;;;22.73;;
61704;SDS011;47627;48.078;11.522;2024-03-22T06:01:51;31.98;;;22.88;;
61704;SDS011;47627;48.078;11.522;2024-03-22T06:04:16;29.90;;;22.02;;
61704;SDS011;47627;48.078;11.522;2024-03-22T06:06:42;28.92;;;22.33;;
61704;SDS011;47627;48.078;11.522;2024-03-22T06:09:07;31.42;;;23.73;;
61704;SDS011;47627;48.078;11.522;2024-03-22T06:11:36;31.42;;;22.35;;
61704;SDS011;47627;48.078;11.522;2024-03-22T06:14:02;30.45;;;22.60;;
61704;SDS011;47627;48.078;11.522;2024-03-22T06:16:27;33.47;;;22.30;;
61704;SDS011;47627;48.078;11.522;2024-03-22T06:18:52;29.55;;;22.38;;
61704;SDS011;47627;48.078;11.522;2024-03-22T06:21:17;31.95;;;22.42;;
61704;SDS011;47627;48.078;11.522;2024-03-22T06:23:50;32.05;;;21.90;;
61704;SDS011;47627;48.078;11.522;2024-03-22T06:26:16;29.85;;;22.10;;
61704;SDS011;47627;48.078;11.522;2024-03-22T06:28:41;33.83;;;21.58;;
61704;SDS011;47627;48.078;11.522;2024-03-22T06:31:06;30.98;;;22.50;;
61704;SDS011;47627;48.078;11.522;2024-03-22T06:33:33;27.58;;;20.83;;
61704;SDS011;47627;48.078;11.522;2024-03-22T06:35:58;27.27;;;20.73;;
61704;SDS011;47627;48.078;11.522;2024-03-22T06:38:23;27.73;;;20.25;;
61704;SDS011;47627;48.078;11.522;2024-03-22T06:40:48;24.85;;;18.25;;
61704;SDS011;47627;48.078;11.522;2024-03-22T06:43:14;20.23;;;14.98;;
61704;SDS011;47627;48.078;11.522;2024-03-22T06:45:39;17.77;;;12.65;;
61704;SDS011;47627;48.078;11.522;2024-03-22T06:48:05;16.98;;;10.85;;
61704;SDS011;47627;48.078;11.522;2024-03-22T06:50:30;14.65;;;9.55;;
61704;SDS011;47627;48.078;11.522;2024-03-22T06:52:55;12.82;;;9.20;;
61704;SDS011;47627;48.078;11.522;2024-03-22T06:55:21;12.65;;;9.40;;
61704;SDS011;47627;48.078;11.522;2024-03-22T06:57:47;12.77;;;9.15;;
61704;SDS011;47627;48.078;11.522;2024-03-22T07:00:12;12.70;;;8.95;;
61704;SDS011;47627;48.078;11.522;2024-03-22T07:02:38;9.30;;;8.30;;
61704;SDS011;47627;48.078;11.522;2024-03-22T07:05:04;11.32;;;9.10;;
61704;SDS011;47627;48.078;11.522;2024-03-22T07:07:29;10.32;;;9.13;;
61704;SDS011;47627;48.078;11.522;2024-03-22T07:09:54;23.63;;;16.95;;
61704;SDS011;47627;48.078;11.522;2024-03-22T07:12:19;22.63;;;18.52;;
61704;SDS011;47627;48.078;11.522;2024-03-22T07:14:45;12.80;;;9.48;;
61704;SDS011;47627;48.078;11.522;2024-03-22T07:17:10;10.57;;;8.93;;
61704;SDS011;47627;48.078;11.522;2024-03-22T07:19:35;18.85;;;16.85;;
61704;SDS011;47627;48.078;11.522;2024-03-22T07:22:01;11.75;;;8.40;;
61704;SDS011;47627;48.078;11.522;2024-03-22T07:24:26;16.45;;;13.57;;
61704;SDS011;47627;48.078;11.522;2024-03-22T07:26:51;40.78;;;26.58;;
61704;SDS011;47627;48.078;11.522;2024-03-22T07:29:17;21.00;;;15.02;;
61704;SDS011;47627;48.078;11.522;2024-03-22T07:31:42;26.48;;;20.05;;
61704;SDS011;47627;48.078;11.522;2024-03-22T07:34:07;14.60;;;11.05;;
61704;SDS011;47627;48.078;11.522;2024-03-22T07:36:37;28.08;;;20.67;;
61704;SDS011;47627;48.078;11.522;2024-03-22T07:39:02;13.65;;;11.05;;
61704;SDS011;47627;48.078;11.522;2024-03-22T07:41:28;10.80;;;9.20;;
61704;SDS011;47627;48.078;11.522;2024-03-22T07:43:54;12.35;;;9.77;;
61704;SDS011;47627;48.078;11.522;2024-03-22T07:46:19;13.18;;;9.77;;
61704;SDS011;47627;48.078;11.522;2024-03-22T07:48:44;10.85;;;9.45;;
61704;SDS011;47627;48.078;11.522;2024-03-22T07:51:09;10.60;;;8.93;;
61704;SDS011;47627;48.078;11.522;2024-03-22T07:53:35;13.73;;;9.73;;
61704;SDS011;47627;48.078;11.522;2024-03-22T07:56:00;13.98;;;10.00;;
61704;SDS011;47627;48.078;11.522;2024-03-22T07:58:25;9.82;;;8.82;;
61704;SDS011;47627;48.078;11.522;2024-03-22T08:00:51;12.23;;;8.52;;
61704;SDS011;47627;48.078;11.522;2024-03-22T08:03:16;9.20;;;8.07;;
61704;SDS011;47627;48.078;11.522;2024-03-22T08:05:42;8.93;;;7.70;;
61704;SDS011;47627;48.078;11.522;2024-03-22T08:08:07;11.98;;;7.82;;
61704;SDS011;47627;48.078;11.522;2024-03-22T08:10:32;10.73;;;7.25;;
61704;SDS011;47627;48.078;11.522;2024-03-22T08:12:58;10.00;;;7.65;;
61704;SDS011;47627;48.078;11.522;2024-03-22T08:15:23;8.80;;;7.00;;
61704;SDS011;47627;48.078;11.522;2024-03-22T08:17:48;7.97;;;6.82;;
61704;SDS011;47627;48.078;11.522;2024-03-22T08:20:14;9.00;;;6.82;;
61704;SDS011;47627;48.078;11.522;2024-03-22T08:22:39;10.00;;;6.72;;
61704;SDS011;47627;48.078;11.522;2024-03-22T08:25:04;7.95;;;6.28;;
61704;SDS011;47627;48.078;11.522;2024-03-22T08:27:32;7.95;;;6.35;;
61704;SDS011;47627;48.078;11.522;2024-03-22T08:29:57;7.97;;;4.78;;
61704;SDS011;47627;48.078;11.522;2024-03-22T08:32:23;6.50;;;5.78;;
61704;SDS011;47627;48.078;11.522;2024-03-22T08:34:48;8.80;;;4.90;;
61704;SDS011;47627;48.078;11.522;2024-03-22T08:37:13;6.07;;;5.10;;
61704;SDS011;47627;48.078;11.522;2024-03-22T08:39:38;7.77;;;4.00;;
61704;SDS011;47627;48.078;11.522;2024-03-22T08:42:04;5.43;;;3.50;;
61704;SDS011;47627;48.078;11.522;2024-03-22T08:44:30;5.07;;;3.40;;
61704;SDS011;47627;48.078;11.522;2024-03-22T08:46:56;5.35;;;3.15;;
61704;SDS011;47627;48.078;11.522;2024-03-22T08:49:21;5.22;;;3.30;;
61704;SDS011;47627;48.078;11.522;2024-03-22T08:51:46;6.20;;;4.00;;
61704;SDS011;47627;48.078;11.522;2024-03-22T08:54:13;4.93;;;3.30;;
61704;SDS011;47627;48.078;11.522;2024-03-22T08:56:38;3.88;;;3.05;;
61704;SDS011;47627;48.078;11.522;2024-03-22T08:59:03;6.57;;;3.30;;
61704;SDS011;47627;48.078;11.522;2024-03-22T09:01:29;8.10;;;3.50;;
61704;SDS011;47627;48.078;11.522;2024-03-22T09:03:54;4.43;;;3.03;;
61704;SDS011;47627;48.078;11.522;2024-03-22T09:06:19;4.68;;;3.13;;
61704;SDS011;47627;48.078;11.522;2024-03-22T09:08:44;6.70;;;3.38;;
61704;SDS011;47627;48.078;11.522;2024-03-22T09:11:10;6.70;;;3.47;;
61704;SDS011;47627;48.078;11.522;2024-03-22T09:13:35;4.85;;;3.40;;
61704;SDS011;47627;48.078;11.522;2024-03-22T09:16:01;5.80;;;3.45;;
61704;SDS011;47627;48.078;11.522;2024-03-22T09:18:26;7.30;;;4.30;;
61704;SDS011;47627;48.078;11.522;2024-03-22T09:20:52;5.45;;;4.07;;
61704;SDS011;47627;48.078;11.522;2024-03-22T09:23:18;8.05;;;3.72;;
61704;SDS011;47627;48.078;11.522;2024-03-22T09:25:44;8.00;;;3.85;;
61704;SDS011;47627;48.078;11.522;2024-03-22T09:28:09;6.28;;;3.30;;
61704;SDS011;47627;48.078;11.522;2024-03-22T09:30:38;7.00;;;4.13;;
61704;SDS011;47627;48.078;11.522;2024-03-22T09:33:04;5.93;;;3.45;;
61704;SDS011;47627;48.078;11.522;2024-03-22T09:35:29;6.57;;;3.10;;
61704;SDS011;47627;48.078;11.522;2024-03-22T09:37:56;6.22;;;3.40;;
61704;SDS011;47627;48.078;11.522;2024-03-22T09:40:21;3.53;;;2.70;;
61704;SDS011;47627;48.078;11.522;2024-03-22T09:42:46;5.30;;;3.03;;
61704;SDS011;47627;48.078;11.522;2024-03-22T09:45:13;5.10;;;2.90;;
61704;SDS011;47627;48.078;11.522;2024-03-22T09:47:43;3.80;;;2.85;;
61704;SDS011;47627;48.078;11.522;2024-03-22T09:50:09;6.68;;;2.65;;
61704;SDS011;47627;48.078;11.522;2024-03-22T09:52:35;5.07;;;2.95;;
61704;SDS011;47627;48.078;11.522;2024-03-22T09:55:01;5.35;;;2.50;;
61704;SDS011;47627;48.078;11.522;2024-03-22T09:57:29;4.70;;;3.10;;
61704;SDS011;47627;48.078;11.522;2024-03-22T09:59:55;3.67;;;3.00;;
61704;SDS011;47627;48.078;11.522;2024-03-22T10:02:21;5.82;;;3.10;;
61704;SDS011;47627;48.078;11.522;2024-03-22T10:04:48;4.50;;;3.10;;
61704;SDS011;47627;48.078;11.522;2024-03-22T10:07:15;3.60;;;2.33;;
61704;SDS011;47627;48.078;11.522;2024-03-22T10:09:40;4.50;;;2.67;;
61704;SDS011;47627;48.078;11.522;2024-03-22T10:12:06;5.22;;;2.92;;
61704;SDS011;47627;48.078;11.522;2024-03-22T10:14:31;5.30;;;3.28;;
61704;SDS011;47627;48.078;11.522;2024-03-22T10:16:58;6.18;;;3.25;;
61704;SDS011;47627;48.078;11.522;2024-03-22T10:19:24;4.82;;;3.40;;
61704;SDS011;47627;48.078;11.522;2024-03-22T10:21:59;6.55;;;3.50;;
61704;SDS011;47627;48.078;11.522;2024-03-22T10:24:25;4.50;;;3.08;;
61704;SDS011;47627;48.078;11.522;2024-03-22T10:26:50;5.18;;;3.22;;
61704;SDS011;47627;48.078;11.522;2024-03-22T10:29:15;7.22;;;3.20;;
61704;SDS011;47627;48.078;11.522;2024-03-22T10:31:40;5.57;;;3.08;;
61704;SDS011;47627;48.078;11.522;2024-03-22T10:34:06;6.05;;;3.20;;
61704;SDS011;47627;48.078;11.522;2024-03-22T10:36:33;4.50;;;3.40;;
61704;SDS011;47627;48.078;11.522;2024-03-22T10:38:59;5.60;;;3.70;;
61704;SDS011;47627;48.078;11.522;2024-03-22T10:41:25;4.88;;;3.15;;
61704;SDS011;47627;48.078;11.522;2024-03-22T10:43:51;4.50;;;3.15;;
61704;SDS011;47627;48.078;11.522;2024-03-22T10:46:16;4.13;;;3.08;;
61704;SDS011;47627;48.078;11.522;2024-03-22T10:48:44;5.72;;;2.92;;
61704;SDS011;47627;48.078;11.522;2024-03-22T10:51:10;6.82;;;3.20;;
61704;SDS011;47627;48.078;11.522;2024-03-22T10:53:35;4.00;;;2.78;;
61704;SDS011;47627;48.078;11.522;2024-03-22T10:56:01;6.10;;;3.30;;
61704;SDS011;47627;48.078;11.522;2024-03-22T10:58:27;7.15;;;3.65;;
61704;SDS011;47627;48.078;11.522;2024-03-22T11:00:53;5.55;;;3.30;;
61704;SDS011;47627;48.078;11.522;2024-03-22T11:03:20;5.53;;;3.35;;
61704;SDS011;47627;48.078;11.522;2024-03-22T11:05:49;5.28;;;3.00;;
61704;SDS011;47627;48.078;11.522;2024-03-22T11:08:33;6.55;;;2.97;;
61704;SDS011;47627;48.078;11.522;2024-03-22T11:11:08;3.88;;;2.65;;
61704;SDS011;47627;48.078;11.522;2024-03-22T11:13:35;4.97;;;3.60;;
61704;SDS011;47627;48.078;11.522;2024-03-22T11:16:00;4.07;;;3.22;;
61704;SDS011;47627;48.078;11.522;2024-03-22T11:18:26;5.77;;;3.40;;
61704;SDS011;47627;48.078;11.522;2024-03-22T11:20:51;3.58;;;2.95;;
61704;SDS011;47627;48.078;11.522;2024-03-22T11:23:16;5.07;;;3.10;;
61704;SDS011;47627;48.078;11.522;2024-03-22T11:25:42;3.38;;;2.60;;
61704;SDS011;47627;48.078;11.522;2024-03-22T11:28:07;4.60;;;3.03;;
61704;SDS011;47627;48.078;11.522;2024-03-22T11:30:33;4.57;;;2.88;;
61704;SDS011;47627;48.078;11.522;2024-03-22T11:33:03;4.68;;;2.58;;
61704;SDS011;47627;48.078;11.522;2024-03-22T11:35:29;4.05;;;2.65;;
61704;SDS011;47627;48.078;11.522;2024-03-22T11:37:54;3.28;;;2.60;;
61704;SDS011;47627;48.078;11.522;2024-03-22T11:40:21;4.40;;;3.40;;
61704;SDS011;47627;48.078;11.522;2024-03-22T11:42:47;5.22;;;2.95;;
61704;SDS011;47627;48.078;11.522;2024-03-22T11:45:14;5.70;;;2.60;;
61704;SDS011;47627;48.078;11.522;2024-03-22T11:47:40;4.63;;;2.92;;
61704;SDS011;47627;48.078;11.522;2024-03-22T11:50:05;5.57;;;3.47;;
61704;SDS011;47627;48.078;11.522;2024-03-22T11:52:31;4.00;;;3.08;;
61704;SDS011;47627;48.078;11.522;2024-03-22T11:54:56;6.90;;;3.45;;
61704;SDS011;47627;48.078;11.522;2024-03-22T11:57:22;4.32;;;3.25;;
61704;SDS011;47627;48.078;11.522;2024-03-22T11:59:48;5.05;;;2.90;;
61704;SDS011;47627;48.078;11.522;2024-03-22T12:02:13;4.80;;;3.20;;
61704;SDS011;47627;48.078;11.522;2024-03-22T12:04:42;9.40;;;4.07;;
61704;SDS011;47627;48.078;11.522;2024-03-22T12:07:11;6.93;;;4.05;;
61704;SDS011;47627;48.078;11.522;2024-03-22T12:09:36;7.72;;;3.40;;
61704;SDS011;47627;48.078;11.522;2024-03-22T12:12:01;5.25;;;3.25;;
61704;SDS011;47627;48.078;11.522;2024-03-22T12:14:28;6.75;;;3.83;;
61704;SDS011;47627;48.078;11.522;2024-03-22T12:16:53;6.60;;;3.30;;
61704;SDS011;47627;48.078;11.522;2024-03-22T12:19:19;4.90;;;3.13;;
61704;SDS011;47627;48.078;11.522;2024-03-22T12:21:44;6.15;;;3.28;;
61704;SDS011;47627;48.078;11.522;2024-03-22T12:24:09;5.18;;;3.30;;
61704;SDS011;47627;48.078;11.522;2024-03-22T12:26:35;4.68;;;3.45;;
61704;SDS011;47627;48.078;11.522;2024-03-22T12:29:00;4.93;;;3.40;;
61704;SDS011;47627;48.078;11.522;2024-03-22T12:31:25;4.50;;;3.08;;
61704;SDS011;47627;48.078;11.522;2024-03-22T12:33:50;5.93;;;3.60;;
61704;SDS011;47627;48.078;11.522;2024-03-22T12:36:15;9.00;;;3.60;;
61704;SDS011;47627;48.078;11.522;2024-03-22T12:38:41;3.90;;;3.53;;
61704;SDS011;47627;48.078;11.522;2024-03-22T12:41:06;6.40;;;3.50;;
61704;SDS011;47627;48.078;11.522;2024-03-22T12:43:32;5.47;;;3.75;;
61704;SDS011;47627;48.078;11.522;2024-03-22T12:45:57;4.65;;;3.63;;
61704;SDS011;47627;48.078;11.522;2024-03-22T12:48:22;4.40;;;2.75;;
61704;SDS011;47627;48.078;11.522;2024-03-22T12:50:47;4.97;;;2.17;;
61704;SDS011;47627;48.078;11.522;2024-03-22T12:53:13;4.55;;;2.28;;
61704;SDS011;47627;48.078;11.522;2024-03-22T12:55:38;2.88;;;2.03;;
61704;SDS011;47627;48.078;11.522;2024-03-22T12:58:03;3.35;;;2.45;;
61704;SDS011;47627;48.078;11.522;2024-03-22T13:00:29;4.47;;;2.78;;
61704;SDS011;47627;48.078;11.522;2024-03-22T13:02:56;6.00;;;2.35;;
61704;SDS011;47627;48.078;11.522;2024-03-22T13:05:21;3.10;;;2.40;;
61704;SDS011;47627;48.078;11.522;2024-03-22T13:07:46;3.28;;;2.15;;
61704;SDS011;47627;48.078;11.522;2024-03-22T13:10:12;4.32;;;2.50;;
61704;SDS011;47627;48.078;11.522;2024-03-22T13:12:37;5.65;;;2.47;;
61704;SDS011;47627;48.078;11.522;2024-03-22T13:15:03;2.30;;;1.85;;
61704;SDS011;47627;48.078;11.522;2024-03-22T13:17:28;3.50;;;1.92;;
61704;SDS011;47627;48.078;11.522;2024-03-22T13:19:53;3.20;;;2.22;;
61704;SDS011;47627;48.078;11.522;2024-03-22T13:22:19;4.35;;;2.28;;
61704;SDS011;47627;48.078;11.522;2024-03-22T13:24:44;6.68;;;2.72;;
61704;SDS011;47627;48.078;11.522;2024-03-22T13:27:10;4.18;;;2.03;;
61704;SDS011;47627;48.078;11.522;2024-03-22T13:29:35;2.22;;;1.70;;
61704;SDS011;47627;48.078;11.522;2024-03-22T13:32:00;4.60;;;3.00;;
61704;SDS011;47627;48.078;11.522;2024-03-22T13:34:26;4.35;;;2.40;;
61704;SDS011;47627;48.078;11.522;2024-03-22T13:36:52;3.63;;;2.38;;
61704;SDS011;47627;48.078;11.522;2024-03-22T13:39:17;3.33;;;2.20;;
61704;SDS011;47627;48.078;11.522;2024-03-22T13:41:43;5.25;;;2.33;;
61704;SDS011;47627;48.078;11.522;2024-03-22T13:44:08;5.10;;;2.42;;
61704;SDS011;47627;48.078;11.522;2024-03-22T13:46:33;4.57;;;2.00;;
61704;SDS011;47627;48.078;11.522;2024-03-22T13:49:01;4.97;;;2.08;;
61704;SDS011;47627;48.078;11.522;2024-03-22T13:51:26;2.78;;;2.13;;
61704;SDS011;47627;48.078;11.522;2024-03-22T13:53:53;4.28;;;2.25;;
61704;SDS011;47627;48.078;11.522;2024-03-22T13:56:18;4.70;;;2.00;;
61704;SDS011;47627;48.078;11.522;2024-03-22T13:58:43;3.95;;;2.13;;
61704;SDS011;47627;48.078;11.522;2024-03-22T14:01:08;4.70;;;2.30;;
61704;SDS011;47627;48.078;11.522;2024-03-22T14:03:36;4.03;;;2.10;;
61704;SDS011;47627;48.078;11.522;2024-03-22T14:06:01;3.58;;;1.95;;
61704;SDS011;47627;48.078;11.522;2024-03-22T14:08:27;3.35;;;2.20;;
61704;SDS011;47627;48.078;11.522;2024-03-22T14:10:54;3.80;;;1.80;;